createdAt,value
2018-11-03T00:00:02.625Z,9.56
2018-11-03T00:01:02.619Z,9.55
2018-11-03T00:02:02.569Z,9.55
2018-11-03T00:03:02.627Z,9.50
2018-11-03T00:04:02.544Z,9.55
2018-11-03T00:05:02.619Z,9.47
2018-11-03T00:06:02.531Z,9.50
2018-11-03T00:07:02.516Z,9.51
2018-11-03T00:08:02.503Z,9.50
2018-11-03T00:09:02.536Z,9.41
2018-11-03T00:10:02.528Z,9.41
2018-11-03T00:11:02.476Z,9.40
2018-11-03T00:12:02.515Z,9.43
2018-11-03T00:13:02.444Z,9.46
2018-11-03T00:14:02.469Z,9.47
2018-11-03T00:15:02.441Z,9.47
2018-11-03T00:16:02.456Z,9.51
2018-11-03T00:17:02.443Z,9.55
2018-11-03T00:18:02.393Z,9.58
2018-11-03T00:19:02.409Z,9.54
2018-11-03T00:20:02.434Z,9.51
2018-11-03T00:21:03.029Z,9.48
2018-11-03T00:22:02.367Z,9.54
2018-11-03T00:23:02.360Z,9.55
2018-11-03T00:24:02.394Z,9.55
2018-11-03T00:25:02.327Z,9.55
2018-11-03T00:26:02.344Z,9.54
2018-11-03T00:27:02.316Z,9.54
2018-11-03T00:28:02.336Z,9.56
2018-11-03T00:29:02.327Z,9.54
2018-11-03T00:30:02.279Z,9.55
2018-11-03T00:31:02.334Z,9.48
2018-11-03T00:32:02.270Z,9.54
2018-11-03T00:33:02.238Z,9.55
2018-11-03T00:34:02.261Z,9.61
2018-11-03T00:35:02.226Z,9.56
2018-11-03T00:36:02.226Z,9.65
2018-11-03T00:37:02.194Z,9.59
2018-11-03T00:38:02.222Z,9.68
2018-11-03T00:39:02.219Z,9.74
2018-11-03T00:40:02.208Z,9.69
2018-11-03T00:41:02.151Z,9.77
2018-11-03T00:42:02.160Z,9.66
2018-11-03T00:43:02.139Z,9.65
2018-11-03T00:44:02.131Z,9.59
2018-11-03T00:45:02.139Z,9.65
2018-11-03T00:46:02.154Z,9.50
2018-11-03T00:47:02.085Z,9.55
2018-11-03T00:48:02.069Z,9.51
2018-11-03T00:49:02.085Z,9.46
2018-11-03T00:50:02.064Z,9.48
2018-11-03T00:51:02.040Z,9.48
2018-11-03T00:52:02.030Z,9.39
2018-11-03T00:53:02.025Z,9.37
2018-11-03T00:54:01.999Z,9.44
2018-11-03T00:55:02.009Z,9.40
2018-11-03T00:56:02.012Z,9.29
2018-11-03T00:57:02.020Z,9.36
2018-11-03T00:58:01.982Z,9.39
2018-11-03T00:59:01.956Z,9.36
2018-11-03T01:00:01.975Z,9.31
2018-11-03T01:01:01.945Z,9.44
2018-11-03T01:02:01.926Z,9.48
2018-11-03T01:03:01.945Z,9.51
2018-11-03T01:04:01.896Z,9.50
2018-11-03T01:05:01.917Z,9.55
2018-11-03T01:06:01.896Z,9.54
2018-11-03T01:07:01.874Z,9.66
2018-11-03T01:08:01.890Z,9.66
2018-11-03T01:09:01.897Z,9.66
2018-11-03T01:10:01.834Z,9.65
2018-11-03T01:11:01.822Z,9.58
2018-11-03T01:12:01.816Z,9.59
2018-11-03T01:13:01.809Z,9.56
2018-11-03T01:14:01.799Z,9.44
2018-11-03T01:15:01.789Z,9.43
2018-11-03T01:16:01.831Z,9.37
2018-11-03T01:17:01.768Z,9.37
2018-11-03T01:18:01.763Z,9.34
2018-11-03T01:19:01.744Z,9.28
2018-11-03T01:20:01.742Z,9.34
2018-11-03T01:21:01.775Z,9.19
2018-11-03T01:22:01.704Z,9.26
2018-11-03T01:23:01.748Z,9.25
2018-11-03T01:24:01.739Z,9.25
2018-11-03T01:25:01.683Z,9.21
2018-11-03T01:26:01.703Z,9.29
2018-11-03T01:27:01.649Z,9.14
2018-11-03T01:28:01.644Z,9.11
2018-11-03T01:29:01.629Z,9.11
2018-11-03T01:30:01.663Z,9.14
2018-11-03T01:31:01.629Z,9.10
2018-11-03T01:32:01.605Z,9.13
2018-11-03T01:33:01.589Z,9.04
2018-11-03T01:34:01.599Z,9.19
2018-11-03T01:35:01.560Z,9.08
2018-11-03T01:36:01.587Z,9.16
2018-11-03T01:37:01.553Z,9.16
2018-11-03T01:38:01.594Z,9.26
2018-11-03T01:39:01.529Z,9.18
2018-11-03T01:40:01.533Z,9.19
2018-11-03T01:41:01.535Z,9.26
2018-11-03T01:42:01.539Z,9.25
2018-11-03T01:43:01.532Z,9.26
2018-11-03T01:44:01.466Z,9.19
2018-11-03T01:45:01.517Z,9.22
2018-11-03T01:46:01.482Z,9.21
2018-11-03T01:47:01.505Z,9.31
2018-11-03T01:48:01.424Z,9.25
2018-11-03T01:49:01.431Z,9.22
2018-11-03T01:50:01.407Z,9.19
2018-11-03T01:51:01.394Z,9.22
2018-11-03T01:52:01.381Z,9.22
2018-11-03T01:53:01.391Z,9.25
2018-11-03T01:54:01.386Z,9.29
2018-11-03T01:55:01.368Z,9.22
2018-11-03T01:56:01.365Z,9.19
2018-11-03T01:57:01.372Z,9.31
2018-11-03T01:58:01.326Z,9.29
2018-11-03T01:59:01.370Z,9.29
2018-11-03T02:00:01.297Z,9.28
2018-11-03T02:01:01.283Z,9.32
2018-11-03T02:02:01.334Z,9.29
2018-11-03T02:03:01.273Z,9.21
2018-11-03T02:04:01.287Z,9.22
2018-11-03T02:05:01.250Z,9.22
2018-11-03T02:06:01.239Z,9.21
2018-11-03T02:07:01.244Z,9.25
2018-11-03T02:08:01.205Z,9.32
2018-11-03T02:09:01.196Z,9.32
2018-11-03T02:10:01.187Z,9.31
2018-11-03T02:11:01.222Z,9.37
2018-11-03T02:12:01.210Z,9.32
2018-11-03T02:13:01.532Z,9.37
2018-11-03T02:14:01.154Z,9.34
2018-11-03T02:15:01.147Z,9.41
2018-11-03T02:16:01.116Z,9.37
2018-11-03T02:17:01.167Z,9.39
2018-11-03T02:18:01.105Z,9.40
2018-11-03T02:19:01.137Z,9.37
2018-11-03T02:20:01.103Z,9.32
2018-11-03T02:21:01.094Z,9.34
2018-11-03T02:22:01.066Z,9.26
2018-11-03T02:23:01.056Z,9.32
2018-11-03T02:24:01.080Z,9.28
2018-11-03T02:25:01.043Z,9.32
2018-11-03T02:26:01.098Z,9.28
2018-11-03T02:27:01.040Z,9.39
2018-11-03T02:28:01.006Z,9.36
2018-11-03T02:29:01.033Z,9.41
2018-11-03T02:30:01.036Z,9.43
2018-11-03T02:31:00.985Z,9.44
2018-11-03T02:32:00.956Z,9.43
2018-11-03T02:33:00.965Z,9.36
2018-11-03T02:34:00.962Z,9.40
2018-11-03T02:35:00.928Z,9.41
2018-11-03T02:36:00.979Z,9.39
2018-11-03T02:37:00.908Z,9.29
2018-11-03T02:38:00.915Z,9.29
2018-11-03T02:39:00.901Z,9.31
2018-11-03T02:40:00.889Z,9.29
2018-11-03T02:41:00.889Z,9.23
2018-11-03T02:42:00.847Z,9.22
2018-11-03T02:43:00.843Z,9.26
2018-11-03T02:44:00.862Z,9.21
2018-11-03T02:45:00.814Z,9.22
2018-11-03T02:46:00.857Z,9.22
2018-11-03T02:47:00.789Z,9.19
2018-11-03T02:48:00.778Z,9.22
2018-11-03T02:49:00.839Z,9.22
2018-11-03T02:50:00.777Z,9.16
2018-11-03T02:51:00.804Z,9.11
2018-11-03T02:52:00.770Z,9.16
2018-11-03T02:53:00.783Z,9.10
2018-11-03T02:54:00.780Z,9.25
2018-11-03T02:55:00.740Z,9.26
2018-11-03T02:56:00.747Z,9.19
2018-11-03T02:57:00.725Z,9.21
2018-11-03T02:58:00.708Z,9.25
2018-11-03T02:59:00.665Z,9.25
2018-11-03T03:00:00.669Z,9.22
2018-11-03T03:01:00.693Z,9.19
2018-11-03T03:02:00.663Z,9.26
2018-11-03T03:03:00.635Z,9.36
2018-11-03T03:04:00.627Z,9.29
2018-11-03T03:05:00.613Z,9.34
2018-11-03T03:06:00.587Z,9.31
2018-11-03T03:07:00.585Z,9.32
2018-11-03T03:08:00.572Z,9.36
2018-11-03T03:09:00.621Z,9.34
2018-11-03T03:10:00.569Z,9.34
2018-11-03T03:11:00.580Z,9.31
2018-11-03T03:12:00.542Z,9.50
2018-11-03T03:13:00.508Z,9.46
2018-11-03T03:14:00.516Z,9.44
2018-11-03T03:15:00.504Z,9.44
2018-11-03T03:16:00.481Z,9.48
2018-11-03T03:17:00.480Z,9.47
2018-11-03T03:18:00.495Z,9.46
2018-11-03T03:19:00.519Z,9.37
2018-11-03T03:20:00.508Z,9.44
2018-11-03T03:21:00.451Z,9.47
2018-11-03T03:22:00.457Z,9.40
2018-11-03T03:23:00.437Z,9.41
2018-11-03T03:24:00.406Z,9.36
2018-11-03T03:25:00.435Z,9.36
2018-11-03T03:26:00.385Z,9.32
2018-11-03T03:27:00.412Z,9.36
2018-11-03T03:28:00.386Z,9.40
2018-11-03T03:29:00.433Z,9.40
2018-11-03T03:30:00.347Z,9.28
2018-11-03T03:31:00.369Z,9.34
2018-11-03T03:32:00.408Z,9.23
2018-11-03T03:33:00.295Z,9.16
2018-11-03T03:34:00.333Z,9.29
2018-11-03T03:35:00.277Z,9.21
2018-11-03T03:36:00.269Z,9.21
2018-11-03T03:37:00.315Z,9.25
2018-11-03T03:38:00.290Z,9.22
2018-11-03T03:39:00.242Z,9.21
2018-11-03T03:40:00.229Z,9.25
2018-11-03T03:41:00.253Z,9.23
2018-11-03T03:42:00.214Z,9.19
2018-11-03T03:43:00.216Z,9.21
2018-11-03T03:44:00.184Z,9.28
2018-11-03T03:45:00.220Z,9.18
2018-11-03T03:46:00.160Z,9.21
2018-11-03T03:47:00.150Z,9.22
2018-11-03T03:48:00.143Z,9.23
2018-11-03T03:49:00.136Z,9.28
2018-11-03T03:50:00.136Z,9.21
2018-11-03T03:51:00.101Z,9.25
2018-11-03T03:52:00.105Z,9.23
2018-11-03T03:53:00.117Z,9.23
2018-11-03T03:54:00.113Z,9.26
2018-11-03T03:55:00.065Z,9.21
2018-11-03T03:56:00.051Z,9.22
2018-11-03T03:57:00.082Z,9.22
2018-11-03T03:58:00.035Z,9.22
2018-11-03T03:59:00.018Z,9.26
2018-11-03T04:00:00.013Z,9.22
2018-11-03T04:01:00.008Z,9.23
2018-11-03T04:01:59.992Z,9.29
2018-11-03T04:03:00.040Z,9.25
2018-11-03T04:03:59.974Z,9.34
2018-11-03T04:04:59.964Z,9.28
2018-11-03T04:05:59.987Z,9.31
2018-11-03T04:06:59.939Z,9.28
2018-11-03T04:07:59.971Z,9.28
2018-11-03T04:08:59.913Z,9.23
2018-11-03T04:09:59.900Z,9.14
2018-11-03T04:10:59.931Z,9.23
2018-11-03T04:11:59.899Z,9.25
2018-11-03T04:12:59.899Z,9.21
2018-11-03T04:13:59.872Z,9.19
2018-11-03T04:14:59.871Z,9.22
2018-11-03T04:15:59.860Z,9.23
2018-11-03T04:16:59.837Z,9.22
2018-11-03T04:17:59.878Z,9.25
2018-11-03T04:18:59.823Z,9.26
2018-11-03T04:19:59.855Z,9.23
2018-11-03T04:20:59.781Z,9.18
2018-11-03T04:21:59.807Z,9.28
2018-11-03T04:22:59.786Z,9.19
2018-11-03T04:23:59.775Z,9.21
2018-11-03T04:24:59.737Z,9.28
2018-11-03T04:25:59.757Z,9.21
2018-11-03T04:26:59.739Z,9.23
2018-11-03T04:27:59.716Z,9.22
2018-11-03T04:28:59.726Z,9.22
2018-11-03T04:29:59.698Z,9.19
2018-11-03T04:30:59.700Z,9.23
2018-11-03T04:31:59.709Z,9.21
2018-11-03T04:32:59.653Z,9.26
2018-11-03T04:33:59.698Z,9.22
2018-11-03T04:34:59.658Z,9.26
2018-11-03T04:35:59.695Z,9.32
2018-11-03T04:36:59.626Z,9.18
2018-11-03T04:37:59.614Z,9.32
2018-11-03T04:38:59.608Z,9.25
2018-11-03T04:39:59.579Z,9.25
2018-11-03T04:40:59.595Z,9.19
2018-11-03T04:41:59.612Z,9.19
2018-11-03T04:42:59.556Z,9.21
2018-11-03T04:43:59.627Z,9.19
2018-11-03T04:44:59.577Z,9.22
2018-11-03T04:45:59.526Z,9.22
2018-11-03T04:46:59.509Z,9.22
2018-11-03T04:47:59.534Z,9.22
2018-11-03T04:48:59.545Z,9.25
2018-11-03T04:49:59.475Z,9.28
2018-11-03T04:50:59.462Z,9.26
2018-11-03T04:51:59.502Z,9.29
2018-11-03T04:52:59.442Z,9.22
2018-11-03T04:53:59.510Z,9.22
2018-11-03T04:54:59.467Z,9.25
2018-11-03T04:55:59.411Z,9.25
2018-11-03T04:56:59.427Z,9.25
2018-11-03T04:57:59.426Z,9.34
2018-11-03T04:58:59.417Z,9.37
2018-11-03T04:59:59.373Z,9.37
2018-11-03T05:00:59.361Z,9.37
2018-11-03T05:01:59.354Z,9.32
2018-11-03T05:02:59.357Z,9.36
2018-11-03T05:03:59.357Z,9.41
2018-11-03T05:04:59.349Z,9.40
2018-11-03T05:05:59.336Z,9.43
2018-11-03T05:06:59.322Z,9.44
2018-11-03T05:07:59.280Z,9.51
2018-11-03T05:08:59.277Z,9.50
2018-11-03T05:09:59.349Z,9.47
2018-11-03T05:10:59.255Z,9.48
2018-11-03T05:11:59.258Z,9.48
2018-11-03T05:12:59.230Z,9.34
2018-11-03T05:13:59.214Z,9.31
2018-11-03T05:14:59.231Z,9.32
2018-11-03T05:15:59.238Z,9.40
2018-11-03T05:16:59.183Z,9.41
2018-11-03T05:17:59.186Z,9.47
2018-11-03T05:18:59.164Z,9.46
2018-11-03T05:19:59.162Z,9.41
2018-11-03T05:20:59.182Z,9.48
2018-11-03T05:21:59.156Z,9.43
2018-11-03T05:22:59.135Z,9.46
2018-11-03T05:23:59.137Z,9.46
2018-11-03T05:24:59.108Z,9.40
2018-11-03T05:25:59.121Z,9.29
2018-11-03T05:26:59.098Z,9.37
2018-11-03T05:27:59.099Z,9.37
2018-11-03T05:28:59.056Z,9.37
2018-11-03T05:29:59.048Z,9.34
2018-11-03T05:30:59.070Z,9.31
2018-11-03T05:31:59.093Z,9.25
2018-11-03T05:32:59.026Z,9.28
2018-11-03T05:33:59.142Z,9.26
2018-11-03T05:34:59.026Z,9.36
2018-11-03T05:35:58.980Z,9.23
2018-11-03T05:36:59.022Z,9.22
2018-11-03T05:37:58.968Z,9.25
2018-11-03T05:38:59.035Z,9.22
2018-11-03T05:39:58.967Z,9.22
2018-11-03T05:40:58.981Z,9.26
2018-11-03T05:41:58.952Z,9.29
2018-11-03T05:42:58.911Z,9.25
2018-11-03T05:43:58.908Z,9.25
2018-11-03T05:44:58.926Z,9.19
2018-11-03T05:45:58.927Z,9.32
2018-11-03T05:46:58.914Z,9.21
2018-11-03T05:47:58.886Z,9.23
2018-11-03T05:48:58.880Z,9.18
2018-11-03T05:49:58.840Z,9.23
2018-11-03T05:50:58.841Z,9.34
2018-11-03T05:51:58.840Z,9.23
2018-11-03T05:52:58.816Z,9.29
2018-11-03T05:53:58.806Z,9.23
2018-11-03T05:54:58.781Z,9.39
2018-11-03T05:55:58.811Z,9.25
2018-11-03T05:56:58.774Z,9.39
2018-11-03T05:57:58.801Z,9.34
2018-11-03T05:58:58.827Z,9.31
2018-11-03T05:59:58.747Z,9.25
2018-11-03T06:00:58.718Z,9.26
2018-11-03T06:01:58.735Z,9.39
2018-11-03T06:02:58.723Z,9.26
2018-11-03T06:03:58.681Z,9.36
2018-11-03T06:04:58.699Z,9.31
2018-11-03T06:05:58.668Z,9.29
2018-11-03T06:06:58.654Z,9.34
2018-11-03T06:07:58.657Z,9.36
2018-11-03T06:08:58.733Z,9.34
2018-11-03T06:09:58.656Z,9.34
2018-11-03T06:10:58.621Z,9.37
2018-11-03T06:11:58.615Z,9.36
2018-11-03T06:12:58.593Z,9.37
2018-11-03T06:13:58.579Z,9.32
2018-11-03T06:14:58.588Z,9.43
2018-11-03T06:15:58.585Z,9.37
2018-11-03T06:16:58.587Z,9.43
2018-11-03T06:17:58.573Z,9.37
2018-11-03T06:18:58.542Z,9.43
2018-11-03T06:19:58.548Z,9.47
2018-11-03T06:20:58.529Z,9.41
2018-11-03T06:21:58.540Z,9.29
2018-11-03T06:22:58.547Z,9.40
2018-11-03T06:23:58.491Z,9.29
2018-11-03T06:24:58.471Z,9.32
2018-11-03T06:25:58.460Z,9.37
2018-11-03T06:26:58.453Z,9.28
2018-11-03T06:27:58.471Z,9.37
2018-11-03T06:28:58.418Z,9.37
2018-11-03T06:29:58.412Z,9.41
2018-11-03T06:30:58.396Z,9.37
2018-11-03T06:31:58.399Z,9.31
2018-11-03T06:32:58.404Z,9.32
2018-11-03T06:33:58.400Z,9.32
2018-11-03T06:34:58.414Z,9.34
2018-11-03T06:35:58.346Z,9.37
2018-11-03T06:36:58.352Z,9.29
2018-11-03T06:37:58.322Z,9.34
2018-11-03T06:38:58.353Z,9.39
2018-11-03T06:39:58.315Z,9.31
2018-11-03T06:40:58.287Z,9.32
2018-11-03T06:41:58.288Z,9.37
2018-11-03T06:42:58.286Z,9.31
2018-11-03T06:43:58.259Z,9.37
2018-11-03T06:44:58.249Z,9.31
2018-11-03T06:45:58.254Z,9.37
2018-11-03T06:46:58.255Z,9.26
2018-11-03T06:47:58.226Z,9.37
2018-11-03T06:48:58.234Z,9.43
2018-11-03T06:49:58.190Z,9.44
2018-11-03T06:50:58.179Z,9.41
2018-11-03T06:51:58.184Z,9.39
2018-11-03T06:52:58.192Z,9.43
2018-11-03T06:53:58.199Z,9.50
2018-11-03T06:54:58.145Z,9.50
2018-11-03T06:55:58.130Z,9.51
2018-11-03T06:56:58.129Z,9.56
2018-11-03T06:57:58.136Z,9.58
2018-11-03T06:58:58.104Z,9.56
2018-11-03T06:59:58.093Z,9.59
2018-11-03T07:00:58.099Z,9.62
2018-11-03T07:01:58.080Z,9.66
2018-11-03T07:02:58.060Z,9.61
2018-11-03T07:03:58.046Z,9.69
2018-11-03T07:04:58.068Z,9.72
2018-11-03T07:05:58.048Z,9.74
2018-11-03T07:06:58.012Z,9.68
2018-11-03T07:07:58.007Z,9.76
2018-11-03T07:08:58.014Z,9.73
2018-11-03T07:09:57.979Z,9.76
2018-11-03T07:10:57.973Z,9.77
2018-11-03T07:11:58.006Z,9.72
2018-11-03T07:12:57.994Z,9.76
2018-11-03T07:13:57.942Z,9.76
2018-11-03T07:14:57.955Z,9.68
2018-11-03T07:15:57.914Z,9.72
2018-11-03T07:16:57.903Z,9.73
2018-11-03T07:17:57.909Z,9.64
2018-11-03T07:18:57.884Z,9.79
2018-11-03T07:19:57.870Z,9.73
2018-11-03T07:20:57.863Z,9.68
2018-11-03T07:21:57.852Z,9.80
2018-11-03T07:22:57.860Z,9.72
2018-11-03T07:23:57.838Z,9.72
2018-11-03T07:24:57.825Z,9.64
2018-11-03T07:25:57.812Z,9.76
2018-11-03T07:26:57.797Z,9.68
2018-11-03T07:27:57.789Z,9.74
2018-11-03T07:28:57.780Z,9.76
2018-11-03T07:29:57.767Z,9.76
2018-11-03T07:30:57.757Z,9.77
2018-11-03T07:31:57.748Z,9.73
2018-11-03T07:32:57.746Z,9.80
2018-11-03T07:33:57.755Z,9.80
2018-11-03T07:34:57.716Z,9.89
2018-11-03T07:35:57.700Z,9.91
2018-11-03T07:36:57.691Z,9.82
2018-11-03T07:37:57.690Z,9.87
2018-11-03T07:38:57.673Z,9.94
2018-11-03T07:39:57.661Z,9.87
2018-11-03T07:40:57.779Z,9.87
2018-11-03T07:41:57.636Z,9.87
2018-11-03T07:42:57.623Z,9.91
2018-11-03T07:43:57.610Z,9.97
2018-11-03T07:44:57.613Z,9.97
2018-11-03T07:45:57.605Z,9.95
2018-11-03T07:46:57.586Z,9.99
2018-11-03T07:47:57.634Z,9.97
2018-11-03T07:48:57.734Z,10.04
2018-11-03T07:49:57.548Z,10.02
2018-11-03T07:50:57.556Z,10.04
2018-11-03T07:51:57.533Z,10.01
2018-11-03T07:52:57.531Z,10.10
2018-11-03T07:53:57.516Z,10.12
2018-11-03T07:54:57.494Z,10.15
2018-11-03T07:55:57.482Z,10.12
2018-11-03T07:56:57.480Z,10.07
2018-11-03T07:57:57.491Z,10.09
2018-11-03T07:58:57.474Z,10.10
2018-11-03T07:59:57.449Z,10.17
2018-11-03T08:00:57.429Z,10.12
2018-11-03T08:01:57.446Z,10.15
2018-11-03T08:02:57.433Z,10.15
2018-11-03T08:03:57.440Z,10.28
2018-11-03T08:04:57.394Z,10.23
2018-11-03T08:05:57.413Z,10.25
2018-11-03T08:06:57.370Z,10.35
2018-11-03T08:07:57.354Z,10.34
2018-11-03T08:08:57.434Z,10.31
2018-11-03T08:09:57.337Z,10.34
2018-11-03T08:10:57.319Z,10.33
2018-11-03T08:11:57.314Z,10.31
2018-11-03T08:12:57.297Z,10.28
2018-11-03T08:13:57.309Z,10.23
2018-11-03T08:14:57.278Z,10.23
2018-11-03T08:15:57.313Z,10.33
2018-11-03T08:16:57.261Z,10.16
2018-11-03T08:17:57.242Z,10.22
2018-11-03T08:18:57.254Z,10.22
2018-11-03T08:19:57.227Z,10.17
2018-11-03T08:20:57.238Z,10.15
2018-11-03T08:21:57.211Z,10.20
2018-11-03T08:22:57.185Z,10.25
2018-11-03T08:23:57.255Z,10.16
2018-11-03T08:24:57.175Z,10.17
2018-11-03T08:25:57.170Z,10.19
2018-11-03T08:26:57.140Z,10.22
2018-11-03T08:27:57.138Z,10.15
2018-11-03T08:28:57.147Z,10.23
2018-11-03T08:29:57.126Z,10.26
2018-11-03T08:30:57.108Z,10.19
2018-11-03T08:31:57.092Z,10.20
2018-11-03T08:32:57.089Z,10.25
2018-11-03T08:33:57.092Z,10.23
2018-11-03T08:34:57.091Z,10.19
2018-11-03T08:35:57.073Z,10.20
2018-11-03T08:36:57.058Z,10.26
2018-11-03T08:37:57.035Z,10.30
2018-11-03T08:38:57.015Z,10.38
2018-11-03T08:39:57.032Z,10.34
2018-11-03T08:40:56.998Z,10.34
2018-11-03T08:41:57.000Z,10.23
2018-11-03T08:42:56.974Z,10.30
2018-11-03T08:43:56.965Z,10.26
2018-11-03T08:44:56.959Z,10.28
2018-11-03T08:45:56.936Z,10.34
2018-11-03T08:46:56.928Z,10.33
2018-11-03T08:47:56.979Z,10.34
2018-11-03T08:48:57.025Z,10.34
2018-11-03T08:49:56.893Z,10.44
2018-11-03T08:50:56.899Z,10.38
2018-11-03T08:51:56.866Z,10.40
2018-11-03T08:52:56.874Z,10.44
2018-11-03T08:53:56.864Z,10.54
2018-11-03T08:54:56.863Z,10.49
2018-11-03T08:55:56.822Z,10.56
2018-11-03T08:56:56.813Z,10.60
2018-11-03T08:57:56.809Z,10.67
2018-11-03T08:58:56.790Z,10.59
2018-11-03T08:59:57.003Z,10.67
2018-11-03T09:00:56.808Z,10.67
2018-11-03T09:01:56.764Z,10.63
2018-11-03T09:02:56.744Z,10.63
2018-11-03T09:03:56.736Z,10.68
2018-11-03T09:04:56.743Z,10.61
2018-11-03T09:05:56.720Z,10.61
2018-11-03T09:06:56.819Z,10.68
2018-11-03T09:07:56.700Z,10.75
2018-11-03T09:08:56.732Z,10.78
2018-11-03T09:09:56.670Z,10.69
2018-11-03T09:10:56.688Z,10.79
2018-11-03T09:11:56.682Z,10.78
2018-11-03T09:12:56.684Z,10.86
2018-11-03T09:13:56.664Z,10.90
2018-11-03T09:14:56.674Z,10.96
2018-11-03T09:15:56.652Z,10.94
2018-11-03T09:16:56.595Z,10.93
2018-11-03T09:17:56.584Z,10.99
2018-11-03T09:18:56.589Z,11.04
2018-11-03T09:19:56.569Z,11.07
2018-11-03T09:20:56.570Z,11.12
2018-11-03T09:21:56.583Z,11.14
2018-11-03T09:22:56.551Z,11.14
2018-11-03T09:23:56.552Z,11.17
2018-11-03T09:24:56.510Z,11.11
2018-11-03T09:25:56.551Z,11.22
2018-11-03T09:26:56.511Z,11.26
2018-11-03T09:27:56.524Z,11.25
2018-11-03T09:28:56.474Z,11.19
2018-11-03T09:29:56.482Z,11.29
2018-11-03T09:30:56.472Z,11.27
2018-11-03T09:31:56.552Z,11.30
2018-11-03T09:32:56.428Z,11.17
2018-11-03T09:33:56.464Z,11.17
2018-11-03T09:34:56.434Z,11.14
2018-11-03T09:35:56.396Z,11.23
2018-11-03T09:36:56.453Z,11.18
2018-11-03T09:37:56.379Z,11.29
2018-11-03T09:38:56.364Z,11.23
2018-11-03T09:39:56.352Z,11.32
2018-11-03T09:40:56.351Z,11.25
2018-11-03T09:41:56.324Z,11.26
2018-11-03T09:42:56.409Z,11.27
2018-11-03T09:43:56.313Z,11.23
2018-11-03T09:44:56.394Z,11.32
2018-11-03T09:45:56.307Z,11.33
2018-11-03T09:46:56.309Z,11.35
2018-11-03T09:47:56.331Z,11.32
2018-11-03T09:48:56.264Z,11.35
2018-11-03T09:49:56.240Z,11.40
2018-11-03T09:50:56.292Z,11.43
2018-11-03T09:51:56.276Z,11.44
2018-11-03T09:52:56.214Z,11.40
2018-11-03T09:53:56.206Z,11.43
2018-11-03T09:54:56.191Z,11.43
2018-11-03T09:55:56.178Z,11.51
2018-11-03T09:56:56.185Z,11.48
2018-11-03T09:57:56.186Z,11.48
2018-11-03T09:58:56.202Z,11.43
2018-11-03T09:59:56.174Z,11.50
2018-11-03T10:00:56.121Z,11.50
2018-11-03T10:01:56.154Z,11.51
2018-11-03T10:02:56.114Z,11.45
2018-11-03T10:03:56.275Z,11.45
2018-11-03T10:04:56.093Z,11.50
2018-11-03T10:05:56.146Z,11.44
2018-11-03T10:06:56.061Z,11.43
2018-11-03T10:07:56.059Z,11.51
2018-11-03T10:08:56.053Z,11.52
2018-11-03T10:09:56.029Z,11.54
2018-11-03T10:10:56.045Z,11.55
2018-11-03T10:11:56.037Z,11.57
2018-11-03T10:12:56.007Z,11.60
2018-11-03T10:13:56.022Z,11.55
2018-11-03T10:14:56.003Z,11.51
2018-11-03T10:15:56.063Z,11.52
2018-11-03T10:16:55.958Z,11.59
2018-11-03T10:17:55.986Z,11.54
2018-11-03T10:18:55.934Z,11.65
2018-11-03T10:19:55.955Z,11.62
2018-11-03T10:20:55.932Z,11.60
2018-11-03T10:21:55.901Z,11.51
2018-11-03T10:22:55.994Z,11.54
2018-11-03T10:23:55.877Z,11.52
2018-11-03T10:24:55.899Z,11.63
2018-11-03T10:25:55.893Z,11.68
2018-11-03T10:26:55.910Z,11.68
2018-11-03T10:27:55.864Z,11.66
2018-11-03T10:28:55.848Z,11.65
2018-11-03T10:29:55.828Z,11.66
2018-11-03T10:30:55.828Z,11.80
2018-11-03T10:31:55.808Z,11.73
2018-11-03T10:32:55.846Z,11.78
2018-11-03T10:33:55.766Z,11.78
2018-11-03T10:34:55.761Z,11.87
2018-11-03T10:35:55.787Z,11.81
2018-11-03T10:36:55.756Z,11.86
2018-11-03T10:37:55.761Z,11.87
2018-11-03T10:38:55.750Z,11.97
2018-11-03T10:39:55.703Z,12.04
2018-11-03T10:40:55.715Z,12.09
2018-11-03T10:41:55.714Z,12.07
2018-11-03T10:42:55.675Z,12.04
2018-11-03T10:43:55.664Z,12.07
2018-11-03T10:44:55.677Z,12.04
2018-11-03T10:45:55.654Z,12.13
2018-11-03T10:46:55.658Z,12.12
2018-11-03T10:47:55.679Z,12.17
2018-11-03T10:48:55.640Z,12.03
2018-11-03T10:49:55.602Z,12.06
2018-11-03T10:50:55.590Z,12.04
2018-11-03T10:51:55.596Z,12.06
2018-11-03T10:52:55.584Z,12.25
2018-11-03T10:53:55.607Z,12.27
2018-11-03T10:54:55.586Z,12.15
2018-11-03T10:55:55.534Z,12.12
2018-11-03T10:56:55.576Z,12.18
2018-11-03T10:57:55.532Z,12.20
2018-11-03T10:58:55.524Z,12.10
2018-11-03T10:59:55.506Z,12.07
2018-11-03T11:00:55.480Z,12.12
2018-11-03T11:01:55.479Z,12.06
2018-11-03T11:02:55.469Z,12.06
2018-11-03T11:03:55.507Z,12.12
2018-11-03T11:04:55.470Z,12.12
2018-11-03T11:05:55.438Z,12.21
2018-11-03T11:06:55.433Z,12.25
2018-11-03T11:07:55.421Z,12.25
2018-11-03T11:08:55.435Z,12.29
2018-11-03T11:09:55.412Z,12.31
2018-11-03T11:10:55.417Z,12.31
2018-11-03T11:11:55.367Z,12.43
2018-11-03T11:12:55.367Z,12.43
2018-11-03T11:13:55.356Z,12.45
2018-11-03T11:14:55.368Z,12.39
2018-11-03T11:15:55.404Z,12.47
2018-11-03T11:16:55.407Z,12.47
2018-11-03T11:17:55.315Z,12.53
2018-11-03T11:18:55.334Z,12.62
2018-11-03T11:19:55.295Z,12.68
2018-11-03T11:20:55.282Z,12.67
2018-11-03T11:21:55.253Z,12.65
2018-11-03T11:22:55.245Z,12.72
2018-11-03T11:23:55.293Z,12.82
2018-11-03T11:24:55.398Z,12.76
2018-11-03T11:25:55.214Z,12.78
2018-11-03T11:26:55.209Z,13.04
2018-11-03T11:27:55.198Z,13.25
2018-11-03T11:28:55.190Z,13.62
2018-11-03T11:29:55.157Z,14.03
2018-11-03T11:30:55.180Z,14.55
2018-11-03T11:31:55.159Z,15.11
2018-11-03T11:32:55.142Z,15.31
2018-11-03T11:33:55.154Z,15.82
2018-11-03T11:34:55.168Z,15.94
2018-11-03T11:35:55.133Z,15.97
2018-11-03T11:36:55.107Z,16.12
2018-11-03T11:37:55.079Z,16.20
2018-11-03T11:38:55.073Z,16.15
2018-11-03T11:39:55.060Z,16.57
2018-11-03T11:40:55.067Z,16.58
2018-11-03T11:41:55.039Z,16.51
2018-11-03T11:42:55.063Z,16.41
2018-11-03T11:43:55.032Z,16.39
2018-11-03T11:44:55.017Z,16.16
2018-11-03T11:45:55.028Z,16.00
2018-11-03T11:46:55.027Z,15.84
2018-11-03T11:47:54.983Z,15.77
2018-11-03T11:48:54.970Z,15.51
2018-11-03T11:49:54.959Z,15.52
2018-11-03T11:50:54.949Z,15.22
2018-11-03T11:51:54.937Z,15.11
2018-11-03T11:52:54.944Z,14.99
2018-11-03T11:53:54.937Z,15.02
2018-11-03T11:54:54.987Z,14.94
2018-11-03T11:55:55.055Z,14.85
2018-11-03T11:56:54.880Z,14.73
2018-11-03T11:57:54.894Z,14.73
2018-11-03T11:58:54.848Z,14.66
2018-11-03T11:59:54.853Z,14.54
2018-11-03T12:00:54.831Z,14.58
2018-11-03T12:01:54.849Z,14.55
2018-11-03T12:02:54.804Z,14.50
2018-11-03T12:03:54.813Z,14.44
2018-11-03T12:04:54.785Z,14.47
2018-11-03T12:05:54.821Z,14.37
2018-11-03T12:06:54.798Z,14.25
2018-11-03T12:07:54.785Z,14.17
2018-11-03T12:08:54.749Z,14.17
2018-11-03T12:09:54.789Z,14.10
2018-11-03T12:10:54.747Z,14.18
2018-11-03T12:11:54.784Z,14.14
2018-11-03T12:12:54.729Z,14.10
2018-11-03T12:13:54.710Z,14.07
2018-11-03T12:14:54.712Z,14.17
2018-11-03T12:15:54.711Z,13.99
2018-11-03T12:16:54.665Z,14.08
2018-11-03T12:17:54.644Z,13.99
2018-11-03T12:18:54.661Z,13.93
2018-11-03T12:19:54.661Z,14.00
2018-11-03T12:20:54.620Z,14.08
2018-11-03T12:21:54.644Z,13.97
2018-11-03T12:22:54.588Z,13.90
2018-11-03T12:23:54.612Z,13.93
2018-11-03T12:24:54.622Z,13.89
2018-11-03T12:25:54.598Z,13.79
2018-11-03T12:26:54.541Z,13.71
2018-11-03T12:27:54.536Z,13.71
2018-11-03T12:28:54.528Z,13.72
2018-11-03T12:29:54.520Z,13.72
2018-11-03T12:30:54.500Z,13.67
2018-11-03T12:31:54.519Z,13.77
2018-11-03T12:32:54.481Z,13.72
2018-11-03T12:33:54.506Z,13.74
2018-11-03T12:34:54.475Z,13.74
2018-11-03T12:35:54.471Z,13.77
2018-11-03T12:36:54.445Z,13.72
2018-11-03T12:37:54.495Z,13.79
2018-11-03T12:38:54.505Z,13.86
2018-11-03T12:39:54.420Z,13.87
2018-11-03T12:40:54.585Z,14.08
2018-11-03T12:41:54.407Z,14.23
2018-11-03T12:42:54.387Z,14.37
2018-11-03T12:43:54.402Z,14.51
2018-11-03T12:44:54.362Z,14.55
2018-11-03T12:45:54.371Z,14.60
2018-11-03T12:46:54.344Z,14.63
2018-11-03T12:47:54.380Z,14.60
2018-11-03T12:48:54.398Z,14.48
2018-11-03T12:49:54.311Z,14.41
2018-11-03T12:50:54.332Z,14.25
2018-11-03T12:51:54.275Z,14.17
2018-11-03T12:52:54.279Z,14.11
2018-11-03T12:53:54.266Z,14.18
2018-11-03T12:54:54.262Z,14.10
2018-11-03T12:55:54.263Z,14.04
2018-11-03T12:56:54.240Z,13.97
2018-11-03T12:57:54.210Z,13.96
2018-11-03T12:58:54.274Z,13.79
2018-11-03T12:59:54.232Z,13.77
2018-11-03T13:00:54.218Z,13.79
2018-11-03T13:01:54.169Z,13.77
2018-11-03T13:02:54.157Z,13.72
2018-11-03T13:03:54.159Z,13.74
2018-11-03T13:04:54.203Z,13.72
2018-11-03T13:05:54.148Z,13.83
2018-11-03T13:06:54.157Z,13.74